Time;durP1;ratioP1;P1;durP2;ratioP2;P2;SDS_P1;SDS_P2;PMS_P1;PMS_P2;Temp;Humidity;BMP_temperature;BMP_pressure;BME280_temperature;BME280_humidity;BME280_pressure;Samples;Min_cycle;Max_cycle;Signal;HPM_P1;HPM_P2
2021/12/16 00:02:07;;;;;;;19.17;12.65;;;25.90;99.90;;;;;;4967203;28;20062;-74
2021/12/16 00:34:22;;;;;;;24.45;11.23;;;25.90;99.90;;;;;;4966770;28;20070;-74
2021/12/16 00:36:50;;;;;;;19.40;11.27;;;26.00;99.90;;;;;;4969539;28;20042;-75
2021/12/16 00:39:26;;;;;;;20.35;11.40;;;26.00;99.90;;;;;;4969665;28;20098;-73
2021/12/16 00:42:00;;;;;;;21.60;11.82;;;26.00;99.90;;;;;;4969323;28;20031;-73
2021/12/16 00:47:27;;;;;;;22.90;12.68;;;25.70;99.90;;;;;;4970620;28;20042;-75
2021/12/16 00:50:05;;;;;;;20.85;10.77;;;25.70;99.90;;;;;;4970402;28;20105;-75
2021/12/16 00:57:52;;;;;;;17.33;8.65;;;25.90;99.90;;;;;;4970147;28;20037;-75
2021/12/16 01:00:24;;;;;;;15.93;8.65;;;25.90;99.90;;;;;;4970166;28;20097;-75
2021/12/16 01:08:34;;;;;;;15.48;8.13;;;25.80;99.90;;;;;;4970592;28;20472;-74
2021/12/16 01:47:41;;;;;;;21.20;6.25;;;26.30;99.90;;;;;;4968465;28;20069;-74
2021/12/16 01:50:16;;;;;;;12.77;5.13;;;26.10;99.90;;;;;;4968309;28;20090;-72
2021/12/16 01:55:28;;;;;;;22.40;6.28;;;26.10;99.90;;;;;;4968937;28;20045;-74
2021/12/16 01:58:12;;;;;;;22.13;6.20;;;26.00;99.90;;;;;;4968734;28;20422;-74
2021/12/16 02:01:18;;;;;;;15.55;5.50;;;25.90;99.90;;;;;;4973467;28;20031;-74
2021/12/16 02:03:56;;;;;;;22.58;6.72;;;26.10;99.90;;;;;;4972641;28;20039;-75
2021/12/16 02:09:19;;;;;;;16.80;5.90;;;26.40;99.90;;;;;;4967264;28;20042;-76
2021/12/16 02:11:59;;;;;;;17.02;5.30;;;26.40;99.90;;;;;;4968280;28;20015;-75
2021/12/16 02:31:17;;;;;;;16.65;4.97;;;27.20;97.90;;;;;;4966395;28;20038;-74
2021/12/16 02:36:27;;;;;;;15.40;5.20;;;27.20;98.70;;;;;;4968592;28;20459;-72
2021/12/16 02:39:13;;;;;;;17.27;5.20;;;27.10;98.90;;;;;;4968623;28;20110;-75
2021/12/16 02:41:43;;;;;;;15.38;5.50;;;27.00;99.30;;;;;;4968598;28;20061;-73
2021/12/16 02:44:31;;;;;;;12.65;4.85;;;27.00;99.20;;;;;;4968261;28;20027;-75
2021/12/16 02:49:47;;;;;;;18.95;4.95;;;26.90;99.00;;;;;;4967691;28;20487;-72
2021/12/16 02:52:18;;;;;;;14.55;4.85;;;26.60;99.00;;;;;;4968020;28;20034;-74
2021/12/16 02:54:46;;;;;;;15.55;4.88;;;26.50;99.40;;;;;;4966241;28;20039;-74
2021/12/16 02:57:14;;;;;;;15.88;5.53;;;26.40;99.50;;;;;;4967053;28;20039;-74
2021/12/16 02:59:42;;;;;;;14.32;4.55;;;26.60;99.70;;;;;;4967626;28;20035;-76
2021/12/16 03:02:15;;;;;;;18.85;4.68;;;26.90;98.80;;;;;;4967827;28;20491;-74
2021/12/16 03:04:45;;;;;;;13.40;4.22;;;27.40;98.30;;;;;;4967288;28;20530;-76
2021/12/16 03:07:14;;;;;;;12.70;5.35;;;27.90;96.50;;;;;;4972456;28;20087;-72
2021/12/16 03:12:54;;;;;;;17.38;5.78;;;27.50;96.60;;;;;;4967985;28;20031;-74
2021/12/16 03:15:47;;;;;;;17.30;5.93;;;26.90;97.40;;;;;;4967925;28;20031;-72
2021/12/16 03:18:29;;;;;;;23.85;5.32;;;26.40;98.30;;;;;;4966683;28;20026;-74
2021/12/16 03:21:14;;;;;;;18.20;5.20;;;26.10;98.40;;;;;;4967784;28;20037;-74
2021/12/16 03:26:49;;;;;;;20.40;5.25;;;26.60;98.90;;;;;;4967322;28;20134;-76
2021/12/16 03:37:14;;;;;;;12.02;3.65;;;28.00;95.30;;;;;;4966385;28;20087;-77
2021/12/16 03:40:07;;;;;;;19.42;4.95;;;28.00;94.60;;;;;;4966474;28;20045;-75
2021/12/16 03:42:41;;;;;;;14.15;4.03;;;27.70;95.10;;;;;;4966991;28;20026;-75
2021/12/16 03:48:43;;;;;;;11.90;3.95;;;27.30;96.70;;;;;;4956469;28;20038;-76
2021/12/16 03:51:21;;;;;;;18.40;4.22;;;27.70;95.90;;;;;;4957377;28;20065;-76
2021/12/16 03:53:51;;;;;;;21.13;4.15;;;27.60;95.50;;;;;;4972414;28;20083;-76
2021/12/16 03:56:20;;;;;;;16.60;4.85;;;27.20;95.90;;;;;;4972411;28;20042;-76
2021/12/16 03:58:48;;;;;;;14.00;3.83;;;26.90;96.10;;;;;;4971935;28;20023;-75
2021/12/16 04:01:22;;;;;;;17.38;4.78;;;26.70;96.50;;;;;;4971866;28;20506;-76
2021/12/16 04:03:50;;;;;;;17.17;4.18;;;26.40;96.70;;;;;;4972309;28;20019;-75
2021/12/16 04:06:20;;;;;;;16.67;3.92;;;26.20;97.20;;;;;;4971943;28;20025;-76
2021/12/16 04:08:48;;;;;;;18.65;3.95;;;26.00;97.00;;;;;;4972714;28;20023;-74
2021/12/16 04:11:22;;;;;;;13.60;3.58;;;25.60;97.50;;;;;;4974817;28;20034;-77
2021/12/16 04:14:00;;;;;;;20.60;3.60;;;25.30;98.20;;;;;;4976310;28;20054;-76
2021/12/16 04:16:41;;;;;;;16.90;3.80;;;25.20;98.60;;;;;;4976286;28;20045;-76
2021/12/16 04:19:12;;;;;;;12.75;3.55;;;24.90;99.10;;;;;;4975952;28;20021;-75
2021/12/16 04:21:44;;;;;;;19.95;3.90;;;24.50;99.10;;;;;;4975643;28;20049;-76
2021/12/16 04:24:12;;;;;;;;;;;24.30;99.50;;;;;;4976253;28;20037;-77
2021/12/16 04:26:41;;;;;;;16.88;4.05;;;24.10;99.30;;;;;;4975568;28;20303;-76
2021/12/16 04:29:08;;;;;;;15.20;3.60;;;24.00;99.50;;;;;;4975452;28;20027;-77
2021/12/16 04:31:38;;;;;;;16.88;3.15;;;23.90;99.30;;;;;;4975872;28;20031;-78
2021/12/16 04:34:07;;;;;;;18.65;4.32;;;23.70;99.70;;;;;;4975640;28;20027;-76
2021/12/16 04:36:35;;;;;;;19.60;4.05;;;23.70;99.90;;;;;;4975352;28;20049;-77
2021/12/16 04:39:07;;;;;;;18.88;4.35;;;23.60;99.90;;;;;;4975878;28;20049;-76
2021/12/16 04:41:35;;;;;;;15.40;4.03;;;23.50;99.90;;;;;;4975894;28;20034;-74
2021/12/16 04:44:03;;;;;;;17.83;4.25;;;23.50;99.90;;;;;;4975727;28;20434;-74
2021/12/16 04:46:31;;;;;;;18.35;3.70;;;23.50;99.80;;;;;;4975672;28;20034;-74
2021/12/16 04:49:00;;;;;;;18.92;3.65;;;23.50;99.80;;;;;;4974463;28;20077;-75
2021/12/16 04:51:32;;;;;;;18.83;3.30;;;23.60;99.90;;;;;;4975335;28;20062;-75
2021/12/16 04:54:00;;;;;;;17.05;3.28;;;23.60;99.70;;;;;;4974207;28;20112;-74
2021/12/16 04:56:28;;;;;;;15.05;3.58;;;23.60;99.30;;;;;;4975104;28;20491;-75
2021/12/16 04:58:57;;;;;;;21.52;3.70;;;23.70;99.50;;;;;;4971678;28;20470;-75
2021/12/16 05:01:25;;;;;;;13.57;3.00;;;23.70;99.20;;;;;;4975261;28;20366;-75
2021/12/16 05:03:53;;;;;;;12.27;3.53;;;23.70;99.00;;;;;;4974820;28;20075;-74
2021/12/16 05:06:20;;;;;;;20.20;3.40;;;23.70;99.40;;;;;;4975162;28;20023;-76
2021/12/16 05:08:47;;;;;;;15.57;3.42;;;23.80;99.50;;;;;;4974815;28;20035;-73
2021/12/16 05:11:17;;;;;;;18.95;3.72;;;23.70;99.10;;;;;;4971292;28;20027;-74
2021/12/16 05:13:45;;;;;;;11.63;2.45;;;23.60;99.60;;;;;;4963146;28;20031;-74
2021/12/16 05:16:13;;;;;;;16.88;3.25;;;23.60;99.60;;;;;;4964287;28;20173;-73
2021/12/16 05:18:42;;;;;;;13.18;3.30;;;23.50;99.80;;;;;;4965547;28;20759;-74
2021/12/16 05:24:27;;;;;;;15.90;3.30;;;23.60;99.50;;;;;;4942819;29;20539;-77
2021/12/16 05:26:59;;;;;;;17.38;3.97;;;23.60;99.60;;;;;;4960480;28;20038;-73
2021/12/16 05:29:27;;;;;;;15.15;2.95;;;23.60;99.60;;;;;;4964611;28;20121;-72
2021/12/16 05:31:55;;;;;;;18.10;3.60;;;23.60;99.60;;;;;;4964799;28;20035;-71
2021/12/16 05:34:23;;;;;;;13.52;3.60;;;23.70;99.70;;;;;;4964809;28;20027;-72
2021/12/16 05:36:51;;;;;;;15.45;3.80;;;23.60;99.70;;;;;;4964665;28;20031;-76
2021/12/16 05:39:19;;;;;;;13.73;3.45;;;23.60;99.30;;;;;;4964573;28;20031;-73
2021/12/16 05:41:47;;;;;;;15.82;3.47;;;23.60;99.70;;;;;;4965648;28;20537;-74
2021/12/16 05:44:15;;;;;;;20.83;3.72;;;23.60;99.80;;;;;;4964642;28;20096;-73
2021/12/16 05:46:44;;;;;;;14.15;2.80;;;23.60;99.90;;;;;;4964483;28;20035;-76
2021/12/16 05:49:13;;;;;;;14.98;3.20;;;23.50;99.40;;;;;;4963480;28;20038;-77
2021/12/16 05:51:42;;;;;;;11.75;2.85;;;23.40;99.60;;;;;;4964531;28;20719;-77
2021/12/16 05:54:11;;;;;;;17.48;3.25;;;23.30;99.60;;;;;;4964450;28;20399;-76
2021/12/16 05:56:40;;;;;;;15.93;3.47;;;23.30;99.70;;;;;;4964290;28;20105;-76
2021/12/16 05:59:12;;;;;;;18.42;3.92;;;23.20;99.90;;;;;;4964163;28;20022;-77
2021/12/16 06:01:42;;;;;;;19.10;3.30;;;23.20;99.90;;;;;;4964838;28;20095;-77
2021/12/16 06:04:10;;;;;;;13.55;3.30;;;23.20;99.80;;;;;;4963704;28;20026;-78
2021/12/16 06:06:37;;;;;;;13.05;2.80;;;23.10;99.90;;;;;;4963738;28;20027;-77
2021/12/16 06:09:07;;;;;;;14.02;2.92;;;23.10;99.90;;;;;;4963894;28;20062;-76
2021/12/16 06:11:37;;;;;;;14.68;3.38;;;23.10;99.90;;;;;;4963835;28;20037;-75
2021/12/16 06:27:44;;;;;;;11.27;3.03;;;22.90;99.90;;;;;;4963208;28;20041;-76
2021/12/16 06:30:15;;;;;;;9.65;2.53;;;23.00;99.90;;;;;;4963060;28;20066;-76
2021/12/16 06:32:43;;;;;;;15.73;2.65;;;22.90;99.90;;;;;;4963164;28;20034;-76
2021/12/16 06:35:12;;;;;;;13.10;2.40;;;22.80;99.90;;;;;;4963084;28;20042;-75
2021/12/16 06:37:40;;;;;;;17.10;3.40;;;22.70;99.90;;;;;;4962413;28;20487;-76
2021/12/16 06:40:12;;;;;;;15.43;3.00;;;22.60;99.90;;;;;;4963458;28;20046;-76
2021/12/16 06:42:41;;;;;;;11.65;3.33;;;22.70;99.90;;;;;;4961909;28;20030;-77
2021/12/16 06:45:20;;;;;;;14.10;3.30;;;22.50;99.90;;;;;;4963261;28;20034;-76
2021/12/16 06:48:21;;;;;;;12.18;2.83;;;22.50;99.90;;;;;;4963322;28;20077;-75
2021/12/16 06:50:55;;;;;;;11.50;2.70;;;22.50;99.90;;;;;;4959556;28;20047;-74
2021/12/16 06:53:28;;;;;;;;;;;22.50;99.90;;;;;;4965166;28;20062;-79
2021/12/16 06:56:04;;;;;;;12.65;2.78;;;22.50;99.90;;;;;;4963586;28;19926;-75
2021/12/16 06:58:45;;;;;;;13.45;3.47;;;22.30;99.90;;;;;;4963231;28;20109;-75
2021/12/16 07:01:31;;;;;;;8.80;2.65;;;22.30;99.90;;;;;;4962551;28;20037;-76
2021/12/16 07:03:59;;;;;;;12.80;3.38;;;22.20;99.90;;;;;;4963168;28;20438;-76
2021/12/16 07:06:29;;;;;;;12.32;3.08;;;22.30;99.90;;;;;;4960987;28;20045;-76
2021/12/16 07:09:01;;;;;;;22.35;3.88;;;22.30;99.90;;;;;;4962797;28;20026;-74
2021/12/16 07:11:30;;;;;;;11.95;3.15;;;22.20;99.90;;;;;;4965672;28;20019;-75
2021/12/16 07:14:02;;;;;;;9.57;2.70;;;22.20;99.90;;;;;;4968471;28;20038;-76
2021/12/16 07:16:30;;;;;;;11.35;3.63;;;22.20;99.90;;;;;;4966090;28;20030;-77
2021/12/16 07:18:58;;;;;;;15.63;3.47;;;22.10;99.90;;;;;;4967933;28;20070;-77
2021/12/16 07:21:25;;;;;;;11.00;2.90;;;22.10;99.90;;;;;;4968651;28;20042;-77
2021/12/16 07:23:53;;;;;;;12.88;3.10;;;22.10;99.90;;;;;;4959753;28;20051;-75
2021/12/16 07:26:21;;;;;;;12.50;2.97;;;22.10;99.90;;;;;;4963312;28;20031;-75
2021/12/16 07:28:48;;;;;;;10.13;2.47;;;22.20;99.90;;;;;;4962763;28;20403;-76
2021/12/16 07:31:16;;;;;;;16.58;3.10;;;22.20;99.90;;;;;;4962907;28;21033;-74
2021/12/16 07:33:43;;;;;;;16.42;4.63;;;22.20;99.90;;;;;;4962994;28;20034;-76
2021/12/16 07:36:11;;;;;;;11.82;3.63;;;22.10;99.90;;;;;;4962963;28;20038;-76
2021/12/16 07:38:38;;;;;;;8.63;2.70;;;22.00;99.90;;;;;;4964669;28;20162;-76
2021/12/16 07:41:06;;;;;;;12.10;3.70;;;22.00;99.90;;;;;;4966322;28;20034;-76
2021/12/16 07:43:56;;;;;;;11.00;3.58;;;22.00;99.90;;;;;;4967450;28;20037;-76
2021/12/16 07:46:23;;;;;;;13.18;2.88;;;22.10;99.90;;;;;;4967660;28;20495;-78
2021/12/16 07:48:50;;;;;;;12.57;2.78;;;22.20;99.90;;;;;;4967799;28;20069;-76
2021/12/16 07:51:19;;;;;;;13.38;3.47;;;22.20;99.90;;;;;;4967285;28;20113;-77
2021/12/16 07:53:46;;;;;;;11.02;3.10;;;22.20;99.90;;;;;;4966085;28;20047;-78
2021/12/16 07:56:14;;;;;;;14.68;4.63;;;22.20;99.90;;;;;;4969556;28;20031;-75
2021/12/16 07:58:41;;;;;;;11.95;3.53;;;22.10;99.90;;;;;;4968310;28;20472;-77
2021/12/16 08:01:09;;;;;;;9.57;3.17;;;22.10;99.90;;;;;;4967395;28;20155;-76
2021/12/16 08:03:38;;;;;;;13.18;3.75;;;22.10;99.90;;;;;;4967238;28;20051;-76
2021/12/16 08:06:10;;;;;;;8.60;2.92;;;22.20;99.90;;;;;;4966707;28;20089;-77
2021/12/16 08:08:38;;;;;;;14.13;3.92;;;22.10;99.90;;;;;;4966022;28;20076;-75
2021/12/16 08:11:07;;;;;;;14.43;3.22;;;22.10;99.90;;;;;;4970560;28;20029;-77
2021/12/16 08:13:35;;;;;;;13.95;2.80;;;22.00;99.90;;;;;;4966995;28;20113;-75
2021/12/16 08:16:04;;;;;;;13.15;3.88;;;21.90;99.90;;;;;;4967616;28;20027;-78
2021/12/16 08:18:33;;;;;;;12.05;2.75;;;21.90;99.90;;;;;;4967885;28;20368;-77
2021/12/16 08:21:01;;;;;;;17.13;3.95;;;21.90;99.90;;;;;;4967037;28;20399;-75
2021/12/16 08:23:28;;;;;;;9.38;3.15;;;21.90;99.90;;;;;;4968836;28;20078;-77
2021/12/16 08:25:56;;;;;;;13.10;3.00;;;21.80;99.90;;;;;;4968088;28;20062;-75
2021/12/16 08:28:23;;;;;;;8.55;2.10;;;21.90;99.90;;;;;;4968487;28;20034;-74
2021/12/16 08:30:52;;;;;;;12.63;3.10;;;21.90;99.90;;;;;;4968690;28;20027;-78
2021/12/16 08:33:20;;;;;;;15.70;2.72;;;21.90;99.90;;;;;;4967433;28;20042;-80
2021/12/16 08:35:52;;;;;;;13.98;4.00;;;21.90;99.90;;;;;;4969708;28;20031;-77
2021/12/16 08:38:22;;;;;;;10.15;3.10;;;21.90;99.90;;;;;;4967795;28;20034;-81
2021/12/16 08:40:53;;;;;;;11.43;2.95;;;21.90;99.90;;;;;;4967267;28;20031;-80
2021/12/16 08:43:21;;;;;;;8.48;2.63;;;21.90;99.90;;;;;;4967847;28;20070;-79
2021/12/16 08:45:50;;;;;;;12.38;2.72;;;21.80;99.90;;;;;;4966810;28;20395;-79
2021/12/16 08:48:17;;;;;;;13.57;2.95;;;21.80;99.90;;;;;;4966924;28;20061;-81
2021/12/16 08:50:50;;;;;;;14.63;2.83;;;21.80;99.90;;;;;;4968342;28;20515;-79
2021/12/16 08:53:21;;;;;;;9.32;2.72;;;21.80;99.90;;;;;;4966284;28;20069;-81
2021/12/16 08:55:49;;;;;;;13.75;3.22;;;21.80;99.90;;;;;;4969648;28;20066;-80
2021/12/16 08:58:18;;;;;;;6.93;2.63;;;21.80;99.90;;;;;;4969937;28;20077;-80
2021/12/16 09:00:58;;;;;;;7.43;2.80;;;21.80;99.90;;;;;;4971835;28;20609;-78
2021/12/16 09:03:27;;;;;;;11.32;3.88;;;21.90;99.90;;;;;;4971120;28;20106;-81
2021/12/16 09:05:54;;;;;;;12.70;4.70;;;21.80;99.90;;;;;;4971354;28;20038;-79
2021/12/16 09:08:22;;;;;;;13.00;2.63;;;21.90;99.90;;;;;;4971061;28;20019;-79
2021/12/16 09:10:50;;;;;;;11.43;3.25;;;21.80;99.90;;;;;;4964320;28;20030;-78
2021/12/16 09:13:18;;;;;;;19.60;5.32;;;21.80;99.90;;;;;;4963888;28;20058;-77
2021/12/16 09:15:58;;;;;;;8.93;3.75;;;21.80;99.90;;;;;;4966668;28;20491;-75
2021/12/16 09:18:28;;;;;;;12.63;3.15;;;21.80;99.90;;;;;;4965569;28;20793;-77
2021/12/16 09:20:58;;;;;;;10.68;2.67;;;21.80;99.90;;;;;;4966396;28;20121;-78
2021/12/16 09:23:28;;;;;;;12.90;2.72;;;21.70;99.90;;;;;;4966139;28;20047;-76
2021/12/16 09:25:55;;;;;;;13.70;3.60;;;21.70;99.90;;;;;;4965643;28;20027;-75
2021/12/16 09:28:26;;;;;;;10.25;3.42;;;21.70;99.90;;;;;;4966017;28;20027;-77
2021/12/16 09:30:54;;;;;;;8.57;3.08;;;21.70;99.90;;;;;;4965279;28;20045;-75
2021/12/16 09:33:24;;;;;;;8.18;2.50;;;21.70;99.90;;;;;;4966190;28;20503;-76
2021/12/16 09:35:58;;;;;;;9.00;2.60;;;21.60;99.90;;;;;;4966693;28;20720;-76
2021/12/16 09:38:27;;;;;;;11.10;2.63;;;21.60;99.90;;;;;;4966050;28;20023;-77
2021/12/16 09:40:57;;;;;;;8.95;2.90;;;21.50;99.90;;;;;;4966674;28;20120;-77
2021/12/16 09:43:31;;;;;;;9.30;1.95;;;21.50;99.90;;;;;;4966408;28;20491;-75
2021/12/16 09:46:03;;;;;;;8.15;2.30;;;21.40;99.90;;;;;;4965927;28;20030;-79
2021/12/16 09:48:33;;;;;;;12.88;3.53;;;21.40;99.90;;;;;;4966027;28;20074;-78
2021/12/16 09:51:04;;;;;;;11.15;2.80;;;21.30;99.90;;;;;;4966689;28;20125;-75
2021/12/16 09:53:32;;;;;;;7.05;2.47;;;21.30;99.90;;;;;;4970987;28;20043;-78
2021/12/16 09:56:01;;;;;;;9.32;2.38;;;21.20;99.90;;;;;;4964615;28;20089;-75
2021/12/16 09:58:37;;;;;;;17.83;2.85;;;21.20;99.90;;;;;;4964085;28;20359;-77
2021/12/16 10:01:09;;;;;;;10.63;2.72;;;21.20;99.90;;;;;;4964286;28;20105;-76
2021/12/16 10:03:41;;;;;;;10.23;2.53;;;21.20;99.90;;;;;;4964960;28;20034;-75
2021/12/16 10:06:08;;;;;;;8.00;2.33;;;21.30;99.90;;;;;;4965429;28;20038;-78
2021/12/16 10:08:36;;;;;;;10.52;3.15;;;21.30;99.90;;;;;;4964551;28;20155;-74
2021/12/16 10:11:05;;;;;;;11.48;2.90;;;21.30;99.90;;;;;;4964785;28;20739;-75
2021/12/16 10:13:59;;;;;;;10.02;2.58;;;21.30;99.90;;;;;;4964229;28;20070;-78
2021/12/16 10:19:15;;;;;;;12.63;3.10;;;21.40;99.90;;;;;;4964327;28;20498;-74
2021/12/16 10:21:44;;;;;;;8.13;2.75;;;21.40;99.90;;;;;;4964307;28;20043;-75
2021/12/16 10:24:32;;;;;;;12.23;3.63;;;21.40;99.90;;;;;;4964187;28;20178;-74
2021/12/16 10:27:11;;;;;;;10.13;2.13;;;21.30;99.90;;;;;;4964242;28;20057;-74
2021/12/16 10:29:45;;;;;;;10.40;2.90;;;21.30;99.90;;;;;;4964038;28;20403;-76
2021/12/16 10:32:31;;;;;;;8.70;2.30;;;21.30;99.90;;;;;;4964087;28;20062;-76
2021/12/16 10:35:00;;;;;;;8.73;2.47;;;21.30;99.90;;;;;;4963681;28;20046;-75
2021/12/16 10:37:30;;;;;;;11.90;2.80;;;21.30;99.90;;;;;;4963706;28;20046;-75
2021/12/16 10:40:35;;;;;;;14.52;3.10;;;21.40;99.90;;;;;;4963650;28;20023;-76
2021/12/16 10:43:08;;;;;;;10.65;3.40;;;21.40;99.90;;;;;;4962680;28;20039;-78
2021/12/16 10:45:43;;;;;;;13.15;2.15;;;21.30;99.90;;;;;;4963998;28;20098;-77
2021/12/16 10:48:17;;;;;;;9.18;2.63;;;21.30;99.90;;;;;;4963660;28;20033;-79
2021/12/16 10:50:58;;;;;;;9.80;2.83;;;21.30;99.90;;;;;;4963601;28;20030;-74
2021/12/16 10:53:52;;;;;;;14.60;2.83;;;21.30;99.90;;;;;;4963882;28;20035;-79
2021/12/16 10:56:28;;;;;;;11.00;3.08;;;21.40;99.90;;;;;;4963697;28;20815;-76
2021/12/16 10:59:04;;;;;;;9.38;3.30;;;21.30;99.70;;;;;;4963527;28;20396;-77
2021/12/16 11:01:51;;;;;;;11.10;2.08;;;21.30;99.50;;;;;;4963921;28;20042;-77
2021/12/16 11:04:44;;;;;;;8.50;2.08;;;21.30;99.10;;;;;;4956000;28;20419;-77
2021/12/16 11:07:14;;;;;;;8.15;2.10;;;21.30;99.10;;;;;;4963291;28;20049;-75
2021/12/16 11:09:44;;;;;;;7.75;2.42;;;21.30;98.90;;;;;;4963855;28;20015;-78
2021/12/16 11:12:19;;;;;;;6.82;2.47;;;21.40;99.00;;;;;;4963132;28;20050;-77
2021/12/16 11:14:56;;;;;;;9.98;2.40;;;21.40;98.50;;;;;;4962666;28;20022;-74
2021/12/16 11:17:29;;;;;;;8.88;2.00;;;21.40;98.40;;;;;;4963191;28;20250;-77
2021/12/16 11:19:59;;;;;;;8.70;2.08;;;21.40;98.40;;;;;;4965426;28;20027;-79
2021/12/16 11:22:31;;;;;;;8.10;2.25;;;21.40;97.90;;;;;;4965766;28;20109;-78
2021/12/16 11:25:13;;;;;;;9.52;2.42;;;21.40;97.40;;;;;;4964526;28;20062;-74
2021/12/16 11:27:44;;;;;;;12.73;2.93;;;21.40;97.70;;;;;;4964024;28;20444;-75
2021/12/16 11:30:32;;;;;;;10.07;2.30;;;21.40;98.20;;;;;;4964970;28;20038;-78
2021/12/16 11:33:11;;;;;;;10.55;2.60;;;21.50;98.30;;;;;;4965769;28;20023;-77
2021/12/16 11:35:45;;;;;;;10.98;1.98;;;21.50;98.70;;;;;;4964769;28;20125;-78
2021/12/16 11:38:26;;;;;;;10.35;2.00;;;21.50;99.10;;;;;;4963947;28;20035;-79
2021/12/16 11:41:15;;;;;;;12.40;2.35;;;21.50;99.00;;;;;;4964645;28;20057;-76
2021/12/16 11:43:43;;;;;;;13.57;2.92;;;21.50;99.30;;;;;;4957013;28;20097;-77
2021/12/16 11:46:37;;;;;;;9.63;2.13;;;21.50;99.60;;;;;;4965004;28;20113;-80
2021/12/16 11:49:31;;;;;;;10.00;2.08;;;21.50;99.80;;;;;;4963733;28;20034;-77
2021/12/16 11:52:07;;;;;;;12.20;2.75;;;21.50;99.90;;;;;;4958472;28;20451;-79
2021/12/16 11:55:01;;;;;;;13.68;2.30;;;21.50;99.90;;;;;;4963140;28;20480;-75
2021/12/16 11:57:38;;;;;;;10.77;2.45;;;21.50;99.90;;;;;;4963149;28;20038;-77
2021/12/16 12:00:12;;;;;;;14.48;3.35;;;21.50;99.90;;;;;;4963247;28;20030;-75
2021/12/16 12:02:43;;;;;;;12.93;3.40;;;21.50;99.90;;;;;;4963084;28;20037;-76
2021/12/16 12:05:25;;;;;;;8.77;2.72;;;21.40;99.90;;;;;;4962896;28;20038;-77
2021/12/16 12:07:55;;;;;;;13.10;3.05;;;21.40;99.90;;;;;;4962968;28;20035;-75
2021/12/16 12:10:41;;;;;;;14.23;2.88;;;21.40;99.90;;;;;;4963506;28;20031;-77
2021/12/16 12:13:29;;;;;;;11.50;2.80;;;21.40;99.90;;;;;;4964133;28;20451;-84
2021/12/16 12:16:17;;;;;;;14.35;4.45;;;21.40;99.90;;;;;;4957752;28;20612;-78
2021/12/16 12:19:08;;;;;;;12.43;2.60;;;21.40;99.90;;;;;;4964003;28;20154;-78
2021/12/16 12:21:48;;;;;;;14.43;2.42;;;21.40;99.90;;;;;;4963959;28;20506;-75
2021/12/16 12:24:25;;;;;;;12.30;2.58;;;21.40;99.90;;;;;;4962370;28;20054;-80
2021/12/16 12:26:56;;;;;;;12.98;3.08;;;21.40;99.90;;;;;;4962802;28;20085;-76
2021/12/16 12:29:42;;;;;;;14.05;2.60;;;21.40;99.90;;;;;;4962699;28;20497;-78
2021/12/16 12:32:25;;;;;;;11.50;3.50;;;21.40;99.90;;;;;;4966982;28;20034;-76
2021/12/16 12:34:58;;;;;;;17.75;3.00;;;21.40;99.90;;;;;;4966800;28;20054;-73
2021/12/16 12:37:26;;;;;;;;;;;21.30;99.90;;;;;;4966863;28;20446;-77
2021/12/16 12:40:01;;;;;;;13.40;3.00;;;21.20;99.90;;;;;;4966068;28;19972;-76
2021/12/16 12:42:29;;;;;;;11.95;3.13;;;21.20;99.90;;;;;;4966129;28;20030;-76
2021/12/16 12:44:56;;;;;;;18.48;3.67;;;21.20;99.90;;;;;;4966388;28;20110;-76
2021/12/16 12:47:28;;;;;;;13.65;2.58;;;21.00;99.90;;;;;;4967004;28;20510;-76
2021/12/16 12:50:11;;;;;;;14.18;3.80;;;20.90;99.90;;;;;;4966222;28;21204;-79
2021/12/16 12:52:40;;;;;;;11.77;2.42;;;20.90;99.90;;;;;;4965931;28;20046;-80
2021/12/16 12:55:17;;;;;;;14.32;3.15;;;20.70;99.90;;;;;;4972049;28;20061;-79
2021/12/16 12:57:46;;;;;;;13.40;3.58;;;20.70;99.90;;;;;;4975579;28;20027;-79
2021/12/16 13:00:36;;;;;;;13.98;2.78;;;20.70;99.90;;;;;;4975980;28;20027;-78
2021/12/16 13:03:06;;;;;;;14.45;4.35;;;20.70;99.90;;;;;;4963693;28;20033;-79
2021/12/16 13:05:33;;;;;;;10.20;2.33;;;20.70;99.90;;;;;;4975762;28;20074;-79
2021/12/16 13:08:05;;;;;;;15.75;3.03;;;20.70;99.90;;;;;;4975811;28;20027;-79
2021/12/16 13:10:46;;;;;;;12.13;3.00;;;20.70;99.90;;;;;;4974625;28;20085;-80
2021/12/16 13:27:30;;;;;;;15.77;3.80;;;20.40;99.90;;;;;;4975180;28;20023;-79
2021/12/16 13:32:41;;;;;;;13.93;3.83;;;20.50;99.90;;;;;;4974521;28;20030;-80
2021/12/16 13:35:35;;;;;;;9.88;2.42;;;20.40;99.90;;;;;;4974417;28;20105;-80
2021/12/16 13:38:05;;;;;;;17.85;3.17;;;20.50;99.90;;;;;;4974023;28;20051;-79
2021/12/16 13:40:37;;;;;;;10.98;2.47;;;20.50;99.90;;;;;;4975114;28;20027;-79
2021/12/16 13:43:22;;;;;;;11.88;3.25;;;20.50;99.90;;;;;;4974425;28;20058;-79
2021/12/16 13:46:34;;;;;;;11.27;2.75;;;20.50;99.90;;;;;;4975023;28;20023;-80
2021/12/16 14:01:12;;;;;;;16.52;3.00;;;20.80;99.90;;;;;;4975014;28;20030;-79
2021/12/16 14:04:14;;;;;;;23.02;4.88;;;20.80;99.90;;;;;;4974907;28;20055;-79
2021/12/16 14:06:55;;;;;;;12.23;2.75;;;20.80;99.90;;;;;;4974679;28;20448;-79
2021/12/16 14:09:29;;;;;;;12.30;3.22;;;20.80;99.90;;;;;;4974624;28;20039;-79
2021/12/16 14:17:15;;;;;;;12.07;2.55;;;20.80;99.90;;;;;;4974017;28;20113;-80
2021/12/16 14:25:40;;;;;;;19.25;3.40;;;20.90;99.90;;;;;;4974517;28;20042;-80
2021/12/16 14:49:48;;;;;;;16.08;3.35;;;20.80;99.90;;;;;;4974052;28;20034;-79
2021/12/16 14:52:28;;;;;;;15.50;3.55;;;20.80;99.90;;;;;;4974180;28;20379;-81
2021/12/16 14:55:16;;;;;;;15.00;3.13;;;20.80;99.90;;;;;;4973588;28;20025;-78
2021/12/16 14:57:52;;;;;;;20.00;3.40;;;20.80;99.90;;;;;;4973520;28;20045;-80
2021/12/16 15:00:32;;;;;;;12.13;3.50;;;20.70;99.90;;;;;;4973695;28;20034;-78
2021/12/16 15:03:10;;;;;;;15.38;3.60;;;20.70;99.90;;;;;;4973527;28;20023;-79
2021/12/16 15:05:44;;;;;;;16.42;3.42;;;20.70;99.90;;;;;;4973970;28;20050;-80
2021/12/16 15:08:15;;;;;;;17.30;3.42;;;20.80;99.90;;;;;;4973764;28;20121;-81
2021/12/16 15:10:44;;;;;;;20.63;4.13;;;20.70;99.90;;;;;;4973861;28;20015;-80
2021/12/16 15:13:23;;;;;;;14.32;4.85;;;20.70;99.90;;;;;;4973319;28;20442;-80
2021/12/16 15:16:25;;;;;;;17.95;3.45;;;20.70;99.90;;;;;;4972919;28;20483;-79
2021/12/16 15:38:36;;;;;;;13.88;3.75;;;20.60;99.90;;;;;;4972935;28;20534;-80
2021/12/16 15:43:55;;;;;;;13.43;2.55;;;20.60;99.90;;;;;;4973311;28;20054;-80
2021/12/16 15:46:29;;;;;;;19.92;3.03;;;20.60;99.90;;;;;;4972902;28;20027;-80
2021/12/16 15:48:56;;;;;;;14.90;3.08;;;20.60;99.90;;;;;;4972618;28;20054;-78
2021/12/16 15:51:25;;;;;;;14.50;4.45;;;20.60;99.90;;;;;;4973013;28;20495;-80
2021/12/16 15:53:58;;;;;;;18.65;3.85;;;20.60;99.90;;;;;;4972722;28;20119;-79
2021/12/16 15:56:38;;;;;;;13.57;3.60;;;20.50;99.90;;;;;;4972730;28;20030;-81
2021/12/16 15:59:13;;;;;;;16.50;3.30;;;20.50;99.90;;;;;;4972715;28;20073;-81
2021/12/16 16:01:47;;;;;;;14.30;3.50;;;20.50;99.90;;;;;;4972609;28;20038;-80
2021/12/16 16:04:24;;;;;;;17.98;3.65;;;20.60;99.90;;;;;;4972655;28;20046;-79
2021/12/16 16:06:57;;;;;;;10.35;2.72;;;20.60;99.90;;;;;;4976166;28;20015;-80
2021/12/16 16:09:29;;;;;;;17.88;3.60;;;20.60;99.90;;;;;;4976750;28;20030;-81
2021/12/16 16:11:56;;;;;;;;;;;20.60;99.90;;;;;;4977156;28;20516;-81
2021/12/16 16:14:32;;;;;;;12.55;2.72;;;20.60;99.90;;;;;;4976731;28;19913;-80
2021/12/16 16:17:02;;;;;;;12.98;2.83;;;20.60;99.90;;;;;;4976603;28;20039;-80
2021/12/16 16:19:40;;;;;;;16.98;3.35;;;20.50;99.90;;;;;;4976308;28;20361;-80
2021/12/16 16:22:08;;;;;;;16.00;2.97;;;20.50;99.90;;;;;;4976266;28;20023;-81
2021/12/16 16:24:38;;;;;;;21.23;4.22;;;20.50;99.90;;;;;;4976525;28;20037;-81
2021/12/16 16:27:09;;;;;;;13.35;3.47;;;20.40;99.90;;;;;;4976572;28;20506;-79
2021/12/16 16:29:38;;;;;;;12.65;3.40;;;20.50;99.90;;;;;;4976941;28;20034;-81
2021/12/16 16:32:06;;;;;;;15.35;3.67;;;20.50;99.90;;;;;;4975895;28;20030;-81
2021/12/16 16:34:58;;;;;;;10.73;3.03;;;20.40;99.90;;;;;;4975886;28;20061;-80
2021/12/16 16:37:34;;;;;;;12.30;2.83;;;20.40;99.90;;;;;;4976209;28;20506;-80
2021/12/16 16:40:07;;;;;;;11.65;2.72;;;20.40;99.90;;;;;;4976143;28;20015;-80
2021/12/16 16:42:38;;;;;;;16.27;6.22;;;20.40;99.90;;;;;;4975913;28;20101;-78
2021/12/16 16:45:10;;;;;;;11.85;2.90;;;20.40;99.90;;;;;;4976019;28;20073;-79
2021/12/16 16:47:51;;;;;;;16.15;2.72;;;20.40;99.90;;;;;;4974461;28;20390;-81
2021/12/16 16:50:22;;;;;;;13.80;3.20;;;20.40;99.90;;;;;;4975982;28;20045;-79
2021/12/16 16:52:52;;;;;;;14.57;3.00;;;20.40;99.90;;;;;;4976267;28;20102;-79
2021/12/16 16:55:33;;;;;;;16.95;3.53;;;20.40;99.90;;;;;;4975932;28;20027;-80
2021/12/16 16:58:06;;;;;;;18.20;3.45;;;20.30;99.90;;;;;;4975790;28;20019;-80
2021/12/16 17:00:39;;;;;;;14.63;2.95;;;20.30;99.90;;;;;;4975722;28;20061;-81